Terminal Aerodrome Forecast
Issued by NWS Paducah, KY

Home | Current Version | Previous Version | Text Only | Print | Product List | Glossary On
Versions: 1 2 3 4 5 6 7 8 9 10 11 12 13 14
589
FTUS43 KPAH 241125
TAFPAH
TAF
KPAH 241125Z 2412/2512 34006KT P6SM -RA OVC060
     FM241400 33008KT P6SM VCSH BKN040
     FM250000 31006KT P6SM SCT050 SCT100=

USA.gov is the U.S. government's official web portal to all federal, state and local government web resources and services.